Time;durP1;ratioP1;P1;durP2;ratioP2;P2;SDS_P1;SDS_P2;PMS_P1;PMS_P2;Temp;Humidity;BMP_temperature;BMP_pressure;BME280_temperature;BME280_humidity;BME280_pressure;Samples;Min_cycle;Max_cycle;Signal;HPM_P1;HPM_P2
2021/05/16 00:01:27;;;;;;;3.63;1.25;;;15.70;96.70;;;;;;5102358;28;20048;-77
2021/05/16 00:03:56;;;;;;;4.53;0.90;;;15.70;96.70;;;;;;5100593;28;20042;-77
2021/05/16 00:06:27;;;;;;;3.60;1.20;;;15.70;96.70;;;;;;5103176;28;20036;-77
2021/05/16 00:08:56;;;;;;;4.85;1.15;;;15.80;96.70;;;;;;5103995;28;20039;-77
2021/05/16 00:11:25;;;;;;;5.75;1.40;;;15.80;96.70;;;;;;5091025;28;20741;-77
2021/05/16 00:13:53;;;;;;;5.47;1.20;;;15.80;96.70;;;;;;5107284;28;20135;-77
2021/05/16 00:16:21;;;;;;;9.95;2.17;;;15.80;96.70;;;;;;5099638;28;20053;-77
2021/05/16 00:18:49;;;;;;;3.03;1.20;;;15.70;96.70;;;;;;5102512;28;20070;-76
2021/05/16 00:21:17;;;;;;;2.95;1.33;;;15.80;96.70;;;;;;5102330;28;20036;-77
2021/05/16 00:23:45;;;;;;;4.07;1.27;;;15.90;96.70;;;;;;5102326;28;20108;-77
2021/05/16 00:26:13;;;;;;;6.18;1.60;;;15.90;96.70;;;;;;5099224;28;20085;-77
2021/05/16 00:28:43;;;;;;;4.80;1.08;;;15.90;96.70;;;;;;5102850;28;20046;-77
2021/05/16 00:31:12;;;;;;;3.60;1.23;;;16.00;96.70;;;;;;5100579;28;20112;-77
2021/05/16 00:33:40;;;;;;;4.28;1.63;;;16.00;96.70;;;;;;5100640;28;20098;-77
2021/05/16 00:36:08;;;;;;;6.80;1.60;;;16.00;96.70;;;;;;5102989;28;20057;-76
2021/05/16 00:38:37;;;;;;;4.03;1.15;;;16.00;96.70;;;;;;5105381;28;20138;-77
2021/05/16 00:41:06;;;;;;;3.38;1.48;;;16.00;96.70;;;;;;5104497;28;20500;-77
2021/05/16 00:43:37;;;;;;;5.20;1.67;;;16.00;96.70;;;;;;5104116;28;20040;-77
2021/05/16 00:46:09;;;;;;;2.85;1.33;;;16.10;96.70;;;;;;5103017;28;20146;-77
2021/05/16 00:48:39;;;;;;;4.63;1.23;;;16.10;96.70;;;;;;5099382;28;20043;-77
2021/05/16 00:51:11;;;;;;;5.50;1.70;;;16.00;96.70;;;;;;5105158;27;20590;-77
2021/05/16 00:53:42;;;;;;;4.70;1.45;;;16.00;96.70;;;;;;5103583;28;20581;-76
2021/05/16 00:56:11;;;;;;;3.70;1.45;;;15.90;96.70;;;;;;5100144;28;20089;-77
2021/05/16 00:58:42;;;;;;;5.05;1.08;;;16.00;96.70;;;;;;5105113;28;20518;-77
2021/05/16 01:01:17;;;;;;;5.80;0.95;;;16.00;96.70;;;;;;5104197;28;20039;-77
2021/05/16 01:03:53;;;;;;;2.17;0.77;;;15.80;96.70;;;;;;5104977;28;20492;-77
2021/05/16 01:06:23;;;;;;;5.25;1.00;;;15.80;96.70;;;;;;5087232;28;20134;-77
2021/05/16 01:08:57;;;;;;;2.00;0.75;;;15.70;96.70;;;;;;5087632;28;20060;-77
2021/05/16 01:11:31;;;;;;;2.75;0.80;;;15.70;96.70;;;;;;5104965;28;20753;-77
2021/05/16 01:14:06;;;;;;;2.92;0.68;;;15.70;96.70;;;;;;5106050;27;20142;-77
2021/05/16 01:16:37;;;;;;;1.58;0.60;;;15.70;96.70;;;;;;5096596;28;20135;-77
2021/05/16 01:19:07;;;;;;;3.60;0.80;;;15.80;96.70;;;;;;5083358;28;20040;-77
2021/05/16 01:21:38;;;;;;;2.58;1.00;;;15.70;96.70;;;;;;5103033;28;20214;-77
2021/05/16 01:24:14;;;;;;;2.60;0.68;;;15.80;96.70;;;;;;5102901;28;20040;-77
2021/05/16 01:26:51;;;;;;;3.40;0.70;;;15.80;96.70;;;;;;5116943;27;20040;-77
2021/05/16 01:29:22;;;;;;;3.33;1.10;;;15.70;96.70;;;;;;5101438;28;20493;-77
2021/05/16 01:31:52;;;;;;;3.00;0.80;;;15.60;96.70;;;;;;5099683;28;20040;-77
2021/05/16 01:34:23;;;;;;;1.42;0.70;;;15.60;96.70;;;;;;5100003;28;20050;-77
2021/05/16 01:36:54;;;;;;;3.85;0.90;;;15.70;96.70;;;;;;5103340;28;20082;-77
2021/05/16 01:39:24;;;;;;;3.33;1.17;;;15.70;96.70;;;;;;5096575;28;20071;-76
2021/05/16 01:41:55;;;;;;;3.42;0.90;;;15.70;96.70;;;;;;5107293;27;20071;-77
2021/05/16 01:44:27;;;;;;;5.88;1.55;;;15.80;96.70;;;;;;5096775;28;20478;-77
2021/05/16 01:47:01;;;;;;;4.93;1.00;;;15.80;96.70;;;;;;5103450;28;20214;-77
2021/05/16 01:49:40;;;;;;;5.15;1.20;;;15.80;96.70;;;;;;5082963;28;20079;-77
2021/05/16 01:52:12;;;;;;;4.57;0.77;;;15.90;96.70;;;;;;5101107;28;20042;-77
2021/05/16 01:54:43;;;;;;;5.70;0.95;;;15.90;96.70;;;;;;5099833;28;20052;-77
2021/05/16 01:57:13;;;;;;;4.72;0.80;;;15.80;96.70;;;;;;5102235;28;20039;-77
2021/05/16 01:59:43;;;;;;;3.97;1.13;;;15.70;96.70;;;;;;5101035;28;20048;-77
2021/05/16 02:02:14;;;;;;;4.22;0.90;;;15.70;96.70;;;;;;5102300;28;20031;-77
2021/05/16 02:04:45;;;;;;;5.18;1.08;;;15.80;96.70;;;;;;5103332;28;20142;-76
2021/05/16 02:07:17;;;;;;;2.75;1.27;;;15.90;96.70;;;;;;5094775;27;20036;-77
2021/05/16 02:09:50;;;;;;;3.65;0.73;;;15.90;96.70;;;;;;5100514;28;20035;-77
2021/05/16 02:12:22;;;;;;;2.63;0.70;;;15.90;96.70;;;;;;5096819;28;20073;-77
2021/05/16 02:14:53;;;;;;;3.75;0.73;;;16.00;96.70;;;;;;5107046;27;20604;-77
2021/05/16 02:17:23;;;;;;;4.28;0.70;;;16.00;96.70;;;;;;5101309;27;20044;-77
2021/05/16 02:19:53;;;;;;;2.20;0.63;;;16.00;96.70;;;;;;5089910;28;20051;-77
2021/05/16 02:22:25;;;;;;;4.20;0.70;;;16.00;96.70;;;;;;5101400;28;20082;-77
2021/05/16 02:25:03;;;;;;;3.15;0.88;;;16.00;96.70;;;;;;5083303;28;20516;-77
2021/05/16 02:27:39;;;;;;;3.70;1.05;;;15.90;96.70;;;;;;5084296;28;20044;-77
2021/05/16 02:30:11;;;;;;;2.95;0.82;;;15.90;96.70;;;;;;5099239;28;20048;-77
2021/05/16 02:32:42;;;;;;;3.65;0.75;;;15.90;96.70;;;;;;5106566;27;20056;-78
2021/05/16 02:35:14;;;;;;;4.57;0.85;;;15.90;96.70;;;;;;5102388;28;20035;-77
2021/05/16 02:37:55;;;;;;;2.22;0.80;;;15.90;96.70;;;;;;5087162;27;20044;-78
2021/05/16 02:40:25;;;;;;;4.32;0.73;;;15.90;96.70;;;;;;5098819;28;20131;-78
2021/05/16 02:42:54;;;;;;;4.68;0.95;;;15.90;96.70;;;;;;5103754;28;20039;-77
2021/05/16 02:45:23;;;;;;;3.17;0.75;;;15.80;96.70;;;;;;5100553;28;20047;-78
2021/05/16 02:47:56;;;;;;;3.35;0.82;;;15.80;96.70;;;;;;5095775;28;20043;-77
2021/05/16 02:50:28;;;;;;;2.97;0.73;;;15.80;96.70;;;;;;5084113;28;20040;-78
2021/05/16 02:53:01;;;;;;;3.53;1.13;;;15.90;96.70;;;;;;5104336;28;20536;-77
2021/05/16 02:55:35;;;;;;;3.63;0.80;;;15.90;96.70;;;;;;5101527;28;20046;-78
2021/05/16 02:58:08;;;;;;;1.08;0.60;;;15.80;96.70;;;;;;5098836;28;20122;-77
2021/05/16 03:00:46;;;;;;;2.47;0.63;;;15.70;96.70;;;;;;5100820;28;20319;-77
2021/05/16 03:03:16;;;;;;;4.32;1.05;;;15.60;96.70;;;;;;5086058;28;20521;-77
2021/05/16 03:05:46;;;;;;;3.88;0.85;;;15.50;96.70;;;;;;5101052;28;20312;-77
2021/05/16 03:08:17;;;;;;;5.05;0.80;;;15.50;96.70;;;;;;5085331;28;20106;-77
2021/05/16 03:10:48;;;;;;;3.85;0.70;;;15.50;96.70;;;;;;5096775;28;20044;-78
2021/05/16 03:13:19;;;;;;;1.75;0.40;;;15.60;96.70;;;;;;5101081;28;20054;-77
2021/05/16 03:15:49;;;;;;;2.63;0.70;;;15.60;96.70;;;;;;5099146;28;20047;-77
2021/05/16 03:18:21;;;;;;;2.03;0.73;;;15.70;96.70;;;;;;5102518;27;20044;-77
2021/05/16 03:20:52;;;;;;;1.73;0.45;;;15.70;96.70;;;;;;5100214;28;20043;-77
2021/05/16 03:23:29;;;;;;;2.53;0.70;;;15.60;96.70;;;;;;5085413;28;20470;-77
2021/05/16 03:26:01;;;;;;;3.45;0.77;;;15.60;96.70;;;;;;5097451;28;20296;-77
2021/05/16 03:28:30;;;;;;;1.75;0.60;;;15.60;96.70;;;;;;5101189;28;20633;-77
2021/05/16 03:30:59;;;;;;;3.45;1.05;;;15.50;96.70;;;;;;5096248;28;20508;-78
2021/05/16 03:33:27;;;;;;;2.75;1.10;;;15.60;96.70;;;;;;5094075;28;20082;-77
2021/05/16 03:35:56;;;;;;;2.75;0.60;;;15.70;96.70;;;;;;5100001;28;20028;-78
2021/05/16 03:38:24;;;;;;;2.95;0.93;;;15.70;96.70;;;;;;5102670;28;20038;-77
2021/05/16 03:40:55;;;;;;;5.13;2.03;;;15.70;96.70;;;;;;5101970;28;20057;-77
2021/05/16 03:43:25;;;;;;;2.05;0.98;;;15.70;96.70;;;;;;5102061;28;20047;-77
2021/05/16 03:45:55;;;;;;;3.55;0.90;;;15.70;96.70;;;;;;5099679;28;20405;-77
2021/05/16 03:48:24;;;;;;;1.98;0.73;;;15.70;96.70;;;;;;5097898;28;20036;-77
2021/05/16 03:50:54;;;;;;;3.55;0.70;;;15.70;96.70;;;;;;5101884;28;20042;-77
2021/05/16 03:53:24;;;;;;;3.80;0.88;;;15.70;96.70;;;;;;5100102;28;20416;-77
2021/05/16 03:55:54;;;;;;;3.33;0.60;;;15.70;96.70;;;;;;5098610;28;20043;-77
2021/05/16 03:58:24;;;;;;;4.10;0.95;;;15.80;96.70;;;;;;5096781;28;20047;-77
2021/05/16 04:00:54;;;;;;;2.08;0.60;;;15.80;96.70;;;;;;5102153;28;20497;-77
2021/05/16 04:03:23;;;;;;;2.13;0.60;;;15.80;96.70;;;;;;5098037;28;20043;-77
2021/05/16 04:05:52;;;;;;;1.85;0.60;;;15.70;96.70;;;;;;5103267;28;20039;-77
2021/05/16 04:08:21;;;;;;;1.73;0.93;;;15.70;96.70;;;;;;5101643;28;20062;-77
2021/05/16 04:10:50;;;;;;;3.33;0.70;;;15.70;96.70;;;;;;5100953;28;20039;-78
2021/05/16 04:13:21;;;;;;;1.45;0.50;;;15.70;96.70;;;;;;5101822;27;20121;-77
2021/05/16 04:15:49;;;;;;;2.20;0.57;;;15.70;96.70;;;;;;5083464;28;20032;-76
2021/05/16 04:18:18;;;;;;;5.55;0.85;;;15.70;96.70;;;;;;5095793;28;20043;-77
2021/05/16 04:20:47;;;;;;;2.00;0.50;;;15.70;96.70;;;;;;5101900;28;20054;-77
2021/05/16 04:23:16;;;;;;;2.20;0.65;;;15.80;96.70;;;;;;5101032;28;20048;-77
2021/05/16 04:25:45;;;;;;;2.08;0.65;;;15.80;96.70;;;;;;5112992;27;20047;-77
2021/05/16 04:28:15;;;;;;;2.47;0.50;;;15.80;96.70;;;;;;5098237;28;20459;-78
2021/05/16 04:30:47;;;;;;;3.47;0.65;;;15.80;96.70;;;;;;5103151;28;20039;-77
2021/05/16 04:33:17;;;;;;;2.10;0.88;;;15.90;96.70;;;;;;5098761;28;20284;-77
2021/05/16 04:35:47;;;;;;;2.83;0.50;;;15.90;96.70;;;;;;5100301;28;20043;-77
2021/05/16 04:38:15;;;;;;;2.17;0.57;;;15.90;96.70;;;;;;5099925;28;20040;-77
2021/05/16 04:40:45;;;;;;;2.58;0.63;;;15.90;96.70;;;;;;5092851;28;20112;-77
2021/05/16 04:43:14;;;;;;;4.28;0.60;;;16.00;96.70;;;;;;5102514;28;20097;-77
2021/05/16 04:45:42;;;;;;;3.63;0.73;;;16.00;96.70;;;;;;5099700;28;20147;-77
2021/05/16 04:48:12;;;;;;;0.82;0.43;;;15.90;96.70;;;;;;5097066;28;20092;-77
2021/05/16 04:50:40;;;;;;;1.98;0.55;;;16.00;96.70;;;;;;5112524;28;20036;-78
2021/05/16 04:53:09;;;;;;;3.58;0.60;;;16.00;96.70;;;;;;5082655;28;20054;-77
2021/05/16 04:55:42;;;;;;;3.15;1.00;;;16.00;96.70;;;;;;5100167;28;20046;-77
2021/05/16 04:58:11;;;;;;;3.30;0.82;;;16.10;96.70;;;;;;5098084;28;20113;-77
2021/05/16 05:00:39;;;;;;;4.50;0.70;;;16.10;96.70;;;;;;5090381;28;20056;-77
2021/05/16 05:03:07;;;;;;;1.65;0.50;;;16.10;96.70;;;;;;5101964;28;20040;-77
2021/05/16 05:05:36;;;;;;;2.95;1.20;;;16.10;96.70;;;;;;5099947;28;20035;-77
2021/05/16 05:08:05;;;;;;;4.43;1.00;;;16.10;96.70;;;;;;5101416;28;20040;-77
2021/05/16 05:10:33;;;;;;;4.53;1.23;;;16.00;96.70;;;;;;5082746;28;20043;-77
2021/05/16 05:13:02;;;;;;;4.90;1.58;;;16.00;96.70;;;;;;5102285;28;20050;-77
2021/05/16 05:15:30;;;;;;;7.00;1.17;;;16.00;96.70;;;;;;5102766;28;20044;-77
2021/05/16 05:17:58;;;;;;;4.40;1.20;;;16.00;96.70;;;;;;5096662;28;20541;-77
2021/05/16 05:20:27;;;;;;;4.35;1.38;;;16.10;96.70;;;;;;5096910;28;20043;-77
2021/05/16 05:22:56;;;;;;;2.55;0.90;;;16.10;96.70;;;;;;5101206;28;20493;-77
2021/05/16 05:25:24;;;;;;;1.90;0.90;;;16.10;96.70;;;;;;5101899;28;20050;-77
2021/05/16 05:27:54;;;;;;;3.53;0.82;;;16.10;96.70;;;;;;5085435;28;20412;-77
2021/05/16 05:30:23;;;;;;;3.88;1.00;;;16.10;96.70;;;;;;5102707;28;20054;-77
2021/05/16 05:32:52;;;;;;;2.85;0.70;;;16.10;96.70;;;;;;5104941;28;20054;-77
2021/05/16 05:35:21;;;;;;;5.15;1.17;;;16.10;96.70;;;;;;5101113;28;20401;-77
2021/05/16 05:37:50;;;;;;;5.95;0.73;;;16.00;96.70;;;;;;5104303;28;20039;-77
2021/05/16 05:40:20;;;;;;;2.22;0.57;;;16.00;96.70;;;;;;5082546;28;20450;-77
2021/05/16 05:42:48;;;;;;;2.92;0.75;;;16.00;96.70;;;;;;5102474;28;20045;-77
2021/05/16 05:45:16;;;;;;;5.20;0.80;;;16.10;96.70;;;;;;5103630;28;20068;-77
2021/05/16 05:47:45;;;;;;;2.72;0.60;;;16.00;96.70;;;;;;5105407;28;20047;-77
2021/05/16 05:50:14;;;;;;;3.75;0.60;;;16.10;96.70;;;;;;5101120;28;20040;-77
2021/05/16 05:52:47;;;;;;;3.65;1.00;;;16.10;96.70;;;;;;5100696;27;20101;-77
2021/05/16 05:55:16;;;;;;;2.53;0.70;;;16.10;96.70;;;;;;5095801;28;20123;-77
2021/05/16 05:57:45;;;;;;;3.28;0.70;;;16.20;96.70;;;;;;5102663;28;20431;-77
2021/05/16 06:00:14;;;;;;;2.20;0.55;;;16.40;96.70;;;;;;5098956;28;20043;-77
2021/05/16 06:02:43;;;;;;;4.40;0.95;;;16.50;96.70;;;;;;5095186;28;20039;-77
2021/05/16 06:05:11;;;;;;;4.35;0.90;;;16.60;96.70;;;;;;5100954;28;20036;-77
2021/05/16 06:07:40;;;;;;;2.50;0.75;;;16.60;96.70;;;;;;5101122;27;20138;-77
2021/05/16 06:10:09;;;;;;;4.32;0.90;;;16.60;96.70;;;;;;5108551;27;20053;-77
2021/05/16 06:12:37;;;;;;;5.10;0.95;;;16.70;96.70;;;;;;5105682;27;20039;-77
2021/05/16 06:15:08;;;;;;;2.75;0.95;;;16.70;96.70;;;;;;5099766;27;20110;-77
2021/05/16 06:17:36;;;;;;;11.77;1.88;;;16.70;96.70;;;;;;5099561;28;20032;-77
2021/05/16 06:20:06;;;;;;;4.97;0.95;;;16.70;96.70;;;;;;5103086;28;20420;-77
2021/05/16 06:22:34;;;;;;;3.80;1.13;;;16.70;96.70;;;;;;5101262;28;20062;-77
2021/05/16 06:25:03;;;;;;;3.63;0.80;;;16.70;96.70;;;;;;5099734;28;20409;-77
2021/05/16 06:27:31;;;;;;;8.35;1.10;;;16.70;96.70;;;;;;5097593;28;20051;-77
2021/05/16 06:30:00;;;;;;;6.22;1.00;;;16.80;96.70;;;;;;5104262;28;20039;-77
2021/05/16 06:32:30;;;;;;;3.28;0.85;;;16.80;96.70;;;;;;5081545;28;20050;-77
2021/05/16 06:34:58;;;;;;;3.50;1.02;;;16.90;96.70;;;;;;5105560;28;20889;-78
2021/05/16 06:37:26;;;;;;;3.72;0.85;;;16.80;96.70;;;;;;5102251;28;20104;-77
2021/05/16 06:39:54;;;;;;;3.15;0.50;;;16.80;96.70;;;;;;5103584;28;20118;-77
2021/05/16 06:42:23;;;;;;;4.90;1.30;;;16.80;96.70;;;;;;5097667;28;20044;-77
2021/05/16 06:44:51;;;;;;;2.67;0.77;;;16.90;96.70;;;;;;5102620;28;20063;-77
2021/05/16 06:47:20;;;;;;;5.57;1.15;;;16.90;96.70;;;;;;5091365;28;20047;-77
2021/05/16 06:49:52;;;;;;;5.65;0.95;;;16.90;96.70;;;;;;5103327;28;20168;-77
2021/05/16 06:52:21;;;;;;;3.20;0.95;;;16.80;96.70;;;;;;5080988;28;20047;-77
2021/05/16 06:54:49;;;;;;;7.03;1.35;;;16.80;96.70;;;;;;5104210;28;20055;-77
2021/05/16 06:57:18;;;;;;;4.72;2.03;;;16.80;96.70;;;;;;5100746;28;20036;-77
2021/05/16 06:59:46;;;;;;;3.53;1.20;;;16.80;96.70;;;;;;5103426;28;20034;-77
2021/05/16 07:02:15;;;;;;;7.53;1.75;;;16.80;96.70;;;;;;5085300;28;20044;-77
2021/05/16 07:04:44;;;;;;;8.45;1.85;;;16.80;96.70;;;;;;5086085;28;20510;-77
2021/05/16 07:07:13;;;;;;;5.90;1.55;;;16.80;96.70;;;;;;5110635;27;20832;-77
2021/05/16 07:09:42;;;;;;;4.70;1.52;;;16.90;96.70;;;;;;5100651;28;20040;-77
2021/05/16 07:12:16;;;;;;;5.35;1.02;;;16.90;96.70;;;;;;5102297;28;20513;-77
2021/05/16 07:14:44;;;;;;;2.85;0.90;;;16.90;96.70;;;;;;5105434;27;20046;-77
2021/05/16 07:17:13;;;;;;;6.07;1.08;;;17.00;96.70;;;;;;5101264;28;20035;-76
2021/05/16 07:19:41;;;;;;;7.15;1.70;;;16.90;96.70;;;;;;5084984;28;20040;-77
2021/05/16 07:22:09;;;;;;;6.70;1.65;;;16.90;96.70;;;;;;5104930;28;20050;-77
2021/05/16 07:24:39;;;;;;;4.35;1.17;;;16.90;96.70;;;;;;5100251;28;20032;-77
2021/05/16 07:27:08;;;;;;;5.85;1.35;;;16.90;96.70;;;;;;5101397;28;20039;-76
2021/05/16 07:29:36;;;;;;;6.30;1.15;;;16.80;96.70;;;;;;5098847;28;20113;-77
2021/05/16 07:32:05;;;;;;;4.13;1.15;;;16.80;96.70;;;;;;5099179;28;20051;-77
2021/05/16 07:34:33;;;;;;;5.05;1.42;;;16.80;96.70;;;;;;5101281;28;20051;-77
2021/05/16 07:37:02;;;;;;;5.78;1.20;;;16.90;96.70;;;;;;5096169;28;20036;-77
2021/05/16 07:39:30;;;;;;;8.73;1.40;;;16.90;96.70;;;;;;5100849;28;20425;-77
2021/05/16 07:41:59;;;;;;;4.95;1.20;;;17.00;96.70;;;;;;5085190;28;20143;-77
2021/05/16 07:44:29;;;;;;;3.05;1.00;;;17.00;96.70;;;;;;5081897;28;20523;-76
2021/05/16 07:46:57;;;;;;;4.88;1.30;;;17.10;96.70;;;;;;5102057;28;20046;-77
2021/05/16 07:49:25;;;;;;;2.42;0.80;;;17.10;96.70;;;;;;5101015;28;20032;-77
2021/05/16 07:51:54;;;;;;;5.18;1.30;;;17.20;96.70;;;;;;5100582;28;20047;-77
2021/05/16 07:54:22;;;;;;;5.15;1.10;;;17.30;96.70;;;;;;5098399;28;20059;-77
2021/05/16 07:56:51;;;;;;;6.05;1.17;;;17.40;96.70;;;;;;5099348;28;20054;-77
2021/05/16 07:59:20;;;;;;;5.40;1.38;;;17.40;96.70;;;;;;5096090;28;20044;-77
2021/05/16 08:01:48;;;;;;;6.88;1.67;;;17.50;96.70;;;;;;5102179;28;20428;-77
2021/05/16 08:04:17;;;;;;;4.38;1.17;;;17.50;96.70;;;;;;5100652;28;20511;-77
2021/05/16 08:06:45;;;;;;;6.15;1.38;;;17.50;96.70;;;;;;5107533;27;20035;-77
2021/05/16 08:09:13;;;;;;;4.07;1.15;;;17.60;96.70;;;;;;5098714;28;20104;-77
2021/05/16 08:11:42;;;;;;;6.10;1.05;;;17.70;96.70;;;;;;5089487;28;20480;-77
2021/05/16 08:14:10;;;;;;;5.63;1.58;;;17.80;96.70;;;;;;5100385;28;20225;-77
2021/05/16 08:16:40;;;;;;;5.65;1.27;;;17.90;96.70;;;;;;5102943;28;20492;-77
2021/05/16 08:19:09;;;;;;;6.03;1.48;;;17.90;96.70;;;;;;5098263;28;20089;-77
2021/05/16 08:21:38;;;;;;;5.60;1.33;;;17.90;96.70;;;;;;5103181;28;20050;-77
2021/05/16 08:24:08;;;;;;;6.30;1.27;;;18.00;96.70;;;;;;5099023;28;20039;-77
2021/05/16 08:26:36;;;;;;;7.00;1.58;;;18.00;96.70;;;;;;5100093;28;20093;-78
2021/05/16 08:29:05;;;;;;;5.55;1.20;;;18.10;96.70;;;;;;5094283;28;20044;-77
2021/05/16 08:31:36;;;;;;;6.00;1.40;;;18.20;96.70;;;;;;5100585;28;20043;-77
2021/05/16 08:34:06;;;;;;;4.68;1.10;;;18.10;96.70;;;;;;5102498;28;20104;-77
2021/05/16 08:36:38;;;;;;;6.72;1.40;;;18.10;96.70;;;;;;5098509;28;20044;-77
2021/05/16 08:39:08;;;;;;;6.35;1.55;;;18.10;96.70;;;;;;5097531;28;20035;-77
2021/05/16 08:41:37;;;;;;;5.55;0.98;;;18.10;96.70;;;;;;5083263;28;20040;-77
2021/05/16 08:44:05;;;;;;;5.53;1.25;;;18.10;96.70;;;;;;5100228;28;20117;-77
2021/05/16 08:46:34;;;;;;;3.83;1.48;;;18.10;96.70;;;;;;5098922;28;20120;-77
2021/05/16 08:49:03;;;;;;;4.82;1.25;;;18.20;96.70;;;;;;5101357;28;20507;-77
2021/05/16 08:51:33;;;;;;;6.90;1.48;;;18.20;96.70;;;;;;5099779;28;20047;-77
2021/05/16 08:54:01;;;;;;;9.68;1.73;;;18.20;96.70;;;;;;5101971;28;20063;-78
2021/05/16 08:56:30;;;;;;;6.75;1.52;;;18.30;96.70;;;;;;5100313;28;20052;-77
2021/05/16 08:58:58;;;;;;;5.50;1.33;;;18.30;96.70;;;;;;5094391;28;20027;-76
2021/05/16 09:01:36;;;;;;;5.85;1.23;;;18.30;96.70;;;;;;5101595;28;20071;-76
2021/05/16 09:04:19;;;;;;;7.47;2.03;;;18.40;96.70;;;;;;5104637;28;20051;-77
2021/05/16 09:06:52;;;;;;;5.72;1.55;;;18.50;96.70;;;;;;5102047;28;20114;-76
2021/05/16 09:09:28;;;;;;;5.05;1.55;;;18.60;96.70;;;;;;5104876;28;20130;-76
2021/05/16 09:11:58;;;;;;;6.77;1.83;;;18.60;96.70;;;;;;5100471;28;20055;-78
2021/05/16 09:14:48;;;;;;;5.38;1.80;;;18.60;96.70;;;;;;5105912;27;20702;-79
2021/05/16 09:17:28;;;;;;;5.60;1.38;;;18.60;96.70;;;;;;5104248;28;20506;-77
2021/05/16 09:19:58;;;;;;;6.13;2.75;;;18.70;96.70;;;;;;5104511;28;20043;-76
2021/05/16 09:22:39;;;;;;;5.75;2.05;;;18.80;96.70;;;;;;5104526;28;20105;-76
2021/05/16 09:25:13;;;;;;;6.43;1.65;;;18.80;96.70;;;;;;5102281;28;20117;-76
2021/05/16 09:27:43;;;;;;;5.63;2.00;;;18.80;96.70;;;;;;5101875;28;20043;-76
2021/05/16 09:30:27;;;;;;;9.30;4.32;;;18.70;96.70;;;;;;5103287;28;20043;-76
2021/05/16 09:32:58;;;;;;;7.25;3.83;;;18.70;96.70;;;;;;5104801;27;20514;-76
2021/05/16 09:35:29;;;;;;;6.55;2.97;;;18.70;96.70;;;;;;5100633;28;20044;-76
2021/05/16 09:38:07;;;;;;;5.03;1.90;;;18.80;96.70;;;;;;5104733;28;20040;-77
2021/05/16 09:40:40;;;;;;;5.70;1.83;;;18.90;96.70;;;;;;5108362;27;20114;-78
2021/05/16 09:43:20;;;;;;;4.75;2.20;;;19.00;96.70;;;;;;5097557;28;20511;-78
2021/05/16 09:45:54;;;;;;;4.32;1.95;;;19.00;96.70;;;;;;5102501;28;20116;-77
2021/05/16 09:48:31;;;;;;;6.05;1.88;;;19.00;96.70;;;;;;5099420;28;20444;-78
2021/05/16 09:51:19;;;;;;;5.03;2.15;;;19.00;96.70;;;;;;5099854;28;21469;-77
2021/05/16 09:54:01;;;;;;;8.40;2.03;;;19.00;96.70;;;;;;5092029;28;20055;-79
2021/05/16 09:56:32;;;;;;;5.32;2.10;;;19.00;96.70;;;;;;5091923;28;20523;-79
2021/05/16 09:59:02;;;;;;;5.22;2.63;;;19.10;96.70;;;;;;5100858;28;20039;-79
2021/05/16 10:01:31;;;;;;;8.18;3.20;;;19.10;96.70;;;;;;5092771;28;20059;-81
2021/05/16 10:04:00;;;;;;;9.25;2.53;;;19.10;96.70;;;;;;5103534;28;20093;-80
2021/05/16 10:06:30;;;;;;;5.72;1.75;;;19.10;96.70;;;;;;5100528;28;20401;-80
2021/05/16 10:08:59;;;;;;;7.40;2.78;;;19.00;96.70;;;;;;5102143;28;20040;-80
2021/05/16 10:11:30;;;;;;;5.97;2.25;;;19.00;96.70;;;;;;5081142;28;20915;-79
2021/05/16 10:14:03;;;;;;;8.32;2.40;;;19.00;96.70;;;;;;5104528;27;20028;-80
2021/05/16 10:16:37;;;;;;;7.55;2.00;;;19.00;96.70;;;;;;5083232;28;20511;-79
2021/05/16 10:19:07;;;;;;;4.50;1.77;;;19.00;96.70;;;;;;5082552;28;20120;-79
2021/05/16 10:21:35;;;;;;;6.38;2.10;;;19.10;96.70;;;;;;5095019;28;20035;-80
2021/05/16 10:24:10;;;;;;;5.57;1.52;;;19.10;96.70;;;;;;5112493;27;20178;-79
2021/05/16 10:26:39;;;;;;;6.30;2.08;;;19.10;96.70;;;;;;5084035;28;20273;-78
2021/05/16 10:29:09;;;;;;;5.80;1.45;;;19.10;96.70;;;;;;5116432;27;20063;-79
2021/05/16 10:31:43;;;;;;;3.33;1.15;;;19.10;96.70;;;;;;5102381;28;20756;-80
2021/05/16 10:34:39;;;;;;;6.07;2.17;;;19.10;96.70;;;;;;5102954;28;20481;-79
2021/05/16 10:37:10;;;;;;;5.00;1.88;;;19.20;96.70;;;;;;5090802;28;20039;-79
2021/05/16 10:39:55;;;;;;;5.90;3.10;;;19.20;96.70;;;;;;5085517;28;20112;-80
2021/05/16 10:42:33;;;;;;;8.40;2.65;;;19.20;96.70;;;;;;5090394;28;20113;-78
2021/05/16 10:45:08;;;;;;;6.07;1.83;;;19.20;96.70;;;;;;5098047;28;20074;-79
2021/05/16 10:47:54;;;;;;;3.00;1.42;;;19.30;96.70;;;;;;5099908;28;20065;-79
2021/05/16 10:50:49;;;;;;;4.95;1.50;;;19.30;96.70;;;;;;5098546;28;20047;-79
2021/05/16 10:53:40;;;;;;;6.97;1.85;;;19.30;96.70;;;;;;5096540;28;20054;-78
2021/05/16 10:56:29;;;;;;;5.32;1.23;;;19.30;96.70;;;;;;5075121;28;20043;-79
2021/05/16 10:58:58;;;;;;;4.05;1.40;;;19.30;96.70;;;;;;5093727;28;20514;-79
2021/05/16 11:01:32;;;;;;;4.28;1.58;;;19.40;96.70;;;;;;5094005;28;20043;-80
2021/05/16 11:04:02;;;;;;;4.70;1.63;;;19.40;96.70;;;;;;5079691;28;20092;-80
2021/05/16 11:06:55;;;;;;;4.47;1.88;;;19.40;96.70;;;;;;5102272;28;20032;-79
2021/05/16 11:09:34;;;;;;;4.93;1.58;;;19.30;96.70;;;;;;5094901;28;20086;-79
2021/05/16 11:12:06;;;;;;;5.82;1.95;;;19.40;96.70;;;;;;5100983;28;20042;-79
2021/05/16 11:14:38;;;;;;;5.07;1.50;;;19.50;96.70;;;;;;5112501;27;20151;-79
2021/05/16 11:17:13;;;;;;;4.63;1.60;;;19.40;96.70;;;;;;5098977;28;20349;-79
2021/05/16 11:19:47;;;;;;;5.40;1.55;;;19.30;96.70;;;;;;5100665;28;20138;-80
2021/05/16 11:22:17;;;;;;;5.57;1.73;;;19.30;96.70;;;;;;5081865;28;20044;-78
2021/05/16 11:24:48;;;;;;;7.40;3.08;;;19.30;96.70;;;;;;5099703;28;20497;-78
2021/05/16 11:27:23;;;;;;;4.68;2.47;;;19.40;96.70;;;;;;5083221;28;20048;-77
2021/05/16 11:30:00;;;;;;;6.85;2.20;;;19.50;96.70;;;;;;5100332;28;20040;-78
2021/05/16 11:32:30;;;;;;;5.50;2.30;;;19.50;96.70;;;;;;5097803;28;20143;-78
2021/05/16 11:35:08;;;;;;;5.55;2.00;;;19.40;96.70;;;;;;5097835;28;20127;-78
2021/05/16 11:37:37;;;;;;;7.43;2.45;;;19.30;96.70;;;;;;5103805;28;20506;-81
2021/05/16 11:40:32;;;;;;;8.32;3.50;;;19.30;96.70;;;;;;5100768;28;20046;-79
2021/05/16 11:43:05;;;;;;;8.10;3.13;;;19.40;96.70;;;;;;5087318;27;20079;-81
2021/05/16 11:45:38;;;;;;;7.78;3.30;;;19.50;96.70;;;;;;5100598;28;20052;-79
2021/05/16 11:48:07;;;;;;;6.70;2.25;;;19.50;96.70;;;;;;5101522;28;20135;-78
2021/05/16 11:50:44;;;;;;;5.65;1.75;;;19.40;96.70;;;;;;5100495;28;20409;-80
2021/05/16 11:53:13;;;;;;;4.88;1.63;;;19.30;96.70;;;;;;5101378;28;20055;-79
2021/05/16 11:55:42;;;;;;;6.18;2.10;;;19.10;96.70;;;;;;5083708;28;20048;-79
2021/05/16 11:58:12;;;;;;;5.40;2.20;;;19.00;96.70;;;;;;5099347;28;20043;-79
2021/05/16 12:00:40;;;;;;;4.85;2.00;;;19.00;96.70;;;;;;5101753;28;20031;-79
2021/05/16 12:03:14;;;;;;;5.13;2.35;;;19.00;96.70;;;;;;5099474;28;20131;-79
2021/05/16 12:05:43;;;;;;;5.38;2.05;;;19.00;96.70;;;;;;5099313;28;20044;-79
2021/05/16 12:08:16;;;;;;;5.18;2.20;;;19.00;96.70;;;;;;5098905;28;20421;-78
2021/05/16 12:10:46;;;;;;;6.45;3.25;;;19.00;96.70;;;;;;5101941;28;20476;-78
2021/05/16 12:13:23;;;;;;;5.68;3.70;;;18.90;96.70;;;;;;5100436;28;20028;-78
2021/05/16 12:15:52;;;;;;;8.43;4.00;;;19.00;96.70;;;;;;5099672;28;20120;-77
2021/05/16 12:18:22;;;;;;;7.50;3.33;;;19.00;96.70;;;;;;5098754;28;20046;-77
2021/05/16 12:21:01;;;;;;;3.65;2.30;;;19.00;96.70;;;;;;5093156;28;20050;-80
2021/05/16 12:23:31;;;;;;;5.22;2.30;;;19.00;96.70;;;;;;5097205;28;20051;-79
2021/05/16 12:26:00;;;;;;;6.35;1.95;;;19.10;96.70;;;;;;5101577;28;20055;-79
2021/05/16 12:28:30;;;;;;;4.88;1.58;;;19.10;96.70;;;;;;5095206;28;20623;-78
2021/05/16 12:30:59;;;;;;;3.65;1.90;;;19.10;96.70;;;;;;5097841;28;20044;-78
2021/05/16 12:33:29;;;;;;;6.47;1.70;;;19.10;96.70;;;;;;5098615;28;20067;-77
2021/05/16 12:35:58;;;;;;;6.32;1.58;;;19.20;96.70;;;;;;5087790;28;20417;-78
2021/05/16 12:38:39;;;;;;;3.35;1.50;;;19.20;96.70;;;;;;5098619;28;20088;-76
2021/05/16 12:41:19;;;;;;;7.93;2.22;;;19.20;96.70;;;;;;5099344;28;20110;-77
2021/05/16 12:44:07;;;;;;;3.03;1.42;;;19.10;96.70;;;;;;5083497;28;20044;-78
2021/05/16 12:46:41;;;;;;;5.55;1.75;;;19.20;96.70;;;;;;5103579;28;20162;-75
2021/05/16 12:49:11;;;;;;;2.88;1.60;;;19.30;96.70;;;;;;5100935;28;20618;-79
2021/05/16 12:51:40;;;;;;;4.05;1.40;;;19.30;96.70;;;;;;5083326;28;20043;-79
2021/05/16 12:54:16;;;;;;;7.28;2.15;;;19.30;96.70;;;;;;5103020;28;20059;-78
2021/05/16 12:56:47;;;;;;;6.38;1.67;;;19.30;96.70;;;;;;5097204;27;20040;-78
2021/05/16 12:59:27;;;;;;;5.47;1.77;;;19.20;96.70;;;;;;5084757;28;20319;-76
2021/05/16 13:02:11;;;;;;;4.53;1.65;;;19.30;96.70;;;;;;5083452;28;20048;-76
2021/05/16 13:04:52;;;;;;;5.40;1.83;;;19.30;96.70;;;;;;5103077;28;20586;-76
2021/05/16 13:07:42;;;;;;;4.00;1.77;;;19.30;96.70;;;;;;5097693;28;20493;-76
2021/05/16 13:10:34;;;;;;;3.67;1.70;;;19.30;96.70;;;;;;5102507;28;20058;-76